createdAt,value
2023-02-19T00:00:18.553Z,5.45
2023-02-19T00:02:19.983Z,5.47
2023-02-19T00:04:22.576Z,6.00
2023-02-19T00:06:25.797Z,5.85
2023-02-19T00:08:27.245Z,5.93
2023-02-19T00:10:28.715Z,6.40
2023-02-19T00:12:30.189Z,6.38
2023-02-19T00:14:31.694Z,6.45
2023-02-19T00:16:38.794Z,7.07
2023-02-19T00:18:41.301Z,6.93
2023-02-19T00:20:42.768Z,6.82
2023-02-19T00:22:44.264Z,6.80
2023-02-19T00:24:47.333Z,7.07
2023-02-19T00:26:49.901Z,6.38
2023-02-19T00:28:52.547Z,6.57
2023-02-19T00:30:54.082Z,7.05
2023-02-19T00:32:55.615Z,6.97
2023-02-19T00:34:57.056Z,6.03
2023-02-19T00:36:58.516Z,5.60
2023-02-19T00:38:59.990Z,5.63
2023-02-19T00:41:18.881Z,5.57
2023-02-19T00:43:20.398Z,5.50
2023-02-19T00:45:22.170Z,5.63
2023-02-19T00:47:23.621Z,5.63
2023-02-19T00:49:25.133Z,6.03
2023-02-19T00:51:30.247Z,5.40
2023-02-19T00:53:31.740Z,4.50
2023-02-19T00:55:33.241Z,5.05
2023-02-19T00:57:34.679Z,4.85
2023-02-19T00:59:36.883Z,5.05
2023-02-19T01:01:38.698Z,5.65
2023-02-19T01:03:40.594Z,5.03
2023-02-19T01:05:42.033Z,4.80
2023-02-19T01:07:43.528Z,4.72
2023-02-19T01:09:45.051Z,4.72
2023-02-19T01:11:46.539Z,5.38
2023-02-19T01:13:48.204Z,4.57
2023-02-19T01:15:49.827Z,4.93
2023-02-19T01:17:51.261Z,4.30
2023-02-19T01:19:53.004Z,4.10
2023-02-19T01:21:54.423Z,4.10
2023-02-19T01:23:56.670Z,3.13
2023-02-19T01:25:58.134Z,2.72
2023-02-19T01:27:59.593Z,2.20
2023-02-19T01:30:01.075Z,2.85
2023-02-19T01:32:02.793Z,2.75
2023-02-19T01:34:04.820Z,2.80
2023-02-19T01:36:07.337Z,2.08
2023-02-19T01:38:08.777Z,2.65
2023-02-19T01:40:10.472Z,2.50
2023-02-19T01:42:17.018Z,2.40
2023-02-19T01:44:18.540Z,1.95
2023-02-19T01:46:20.074Z,2.15
2023-02-19T01:48:27.569Z,2.33
2023-02-19T01:50:32.719Z,2.10
2023-02-19T01:52:36.879Z,2.40
2023-02-19T01:54:41.960Z,2.38
2023-02-19T01:56:46.043Z,2.42
2023-02-19T01:58:47.855Z,2.33
2023-02-19T02:00:49.403Z,2.00
2023-02-19T02:02:54.366Z,2.33
2023-02-19T02:05:00.223Z,1.90
2023-02-19T02:07:24.431Z,1.80
2023-02-19T02:09:46.908Z,1.85
2023-02-19T02:11:51.491Z,1.83
2023-02-19T02:13:53.894Z,2.45
2023-02-19T02:16:21.763Z,1.90
2023-02-19T02:18:35.649Z,2.38
2023-02-19T02:21:04.007Z,2.22
2023-02-19T02:23:20.614Z,2.17
2023-02-19T02:25:49.395Z,2.33
2023-02-19T02:28:06.796Z,2.45
2023-02-19T02:30:23.910Z,3.25
2023-02-19T02:32:32.043Z,2.60
2023-02-19T02:34:41.968Z,2.70
2023-02-19T02:36:47.219Z,2.60
2023-02-19T02:38:49.921Z,2.45
2023-02-19T02:40:52.023Z,2.45
2023-02-19T02:42:58.189Z,2.85
2023-02-19T02:45:37.222Z,2.75
2023-02-19T02:47:48.404Z,2.53
2023-02-19T02:50:05.179Z,2.90
2023-02-19T02:52:26.691Z,3.30
2023-02-19T02:54:51.778Z,2.83
2023-02-19T02:56:55.800Z,3.08
2023-02-19T02:59:00.865Z,3.38
2023-02-19T03:01:49.367Z,2.88
2023-02-19T03:03:57.493Z,2.42
2023-02-19T03:06:03.989Z,2.25
2023-02-19T03:08:23.029Z,2.15
2023-02-19T03:10:30.763Z,1.92
2023-02-19T03:12:52.561Z,2.20
2023-02-19T03:15:17.019Z,2.25
2023-02-19T03:18:00.118Z,2.13
2023-02-19T03:20:07.679Z,1.98
2023-02-19T03:22:35.920Z,1.92
2023-02-19T03:25:18.962Z,2.40
2023-02-19T03:27:21.913Z,1.90
2023-02-19T03:29:26.476Z,2.00
2023-02-19T03:31:31.542Z,1.80
2023-02-19T03:33:33.845Z,1.38
2023-02-19T03:35:41.567Z,2.05
2023-02-19T03:37:53.101Z,1.27
2023-02-19T03:39:55.348Z,1.30
2023-02-19T03:42:17.955Z,1.27
2023-02-19T03:44:44.911Z,1.63
2023-02-19T03:47:14.280Z,1.60
2023-02-19T03:49:40.334Z,1.50
2023-02-19T03:52:01.981Z,1.60
2023-02-19T03:54:28.853Z,1.20
2023-02-19T03:56:48.302Z,1.63
2023-02-19T03:59:06.829Z,1.58
2023-02-19T04:01:24.772Z,1.65
2023-02-19T04:03:49.429Z,1.30
2023-02-19T04:05:59.210Z,0.55
2023-02-19T04:08:09.043Z,0.88
2023-02-19T04:10:11.573Z,1.20
2023-02-19T04:12:14.978Z,0.90
2023-02-19T04:14:22.920Z,1.13
2023-02-19T04:16:28.507Z,1.38
2023-02-19T04:18:34.492Z,1.02
2023-02-19T04:20:42.880Z,1.92
2023-02-19T04:22:44.873Z,0.90
2023-02-19T04:24:52.387Z,1.05
2023-02-19T04:26:55.726Z,1.52
2023-02-19T04:28:57.179Z,1.17
2023-02-19T04:30:58.628Z,0.93
2023-02-19T04:33:00.141Z,1.23
2023-02-19T04:35:01.620Z,1.65
2023-02-19T04:37:03.217Z,1.17
2023-02-19T04:39:04.673Z,1.33
2023-02-19T04:41:06.194Z,1.90
2023-02-19T04:43:07.750Z,0.93
2023-02-19T04:45:09.243Z,0.90
2023-02-19T04:47:10.690Z,1.50
2023-02-19T04:49:12.153Z,1.20
2023-02-19T04:51:14.076Z,1.30
2023-02-19T04:53:15.526Z,1.50
2023-02-19T04:55:17.465Z,1.42
2023-02-19T04:57:19.037Z,1.67
2023-02-19T04:59:20.472Z,1.50
2023-02-19T05:01:21.992Z,1.35
2023-02-19T05:03:23.439Z,1.40
2023-02-19T05:05:24.914Z,1.45
2023-02-19T05:07:26.391Z,1.67
2023-02-19T05:09:27.827Z,2.10
2023-02-19T05:11:29.310Z,1.50
2023-02-19T05:13:31.256Z,1.50
2023-02-19T05:15:32.851Z,1.30
2023-02-19T05:17:34.976Z,1.33
2023-02-19T05:19:36.468Z,1.08
2023-02-19T05:21:39.302Z,1.05
2023-02-19T05:23:41.557Z,1.08
2023-02-19T05:25:43.073Z,0.80
2023-02-19T05:27:44.684Z,1.20
2023-02-19T05:29:46.128Z,1.20
2023-02-19T05:31:49.052Z,0.80
2023-02-19T05:33:53.838Z,0.88
2023-02-19T05:35:56.068Z,1.00
2023-02-19T05:37:57.543Z,0.75
2023-02-19T05:39:59.017Z,1.25
2023-02-19T05:42:00.480Z,1.08
2023-02-19T05:44:01.949Z,1.40
2023-02-19T05:46:03.457Z,1.40
2023-02-19T05:48:06.044Z,1.00
2023-02-19T05:50:07.759Z,1.13
2023-02-19T05:52:09.251Z,1.35
2023-02-19T05:54:10.691Z,1.15
2023-02-19T05:56:25.088Z,1.48
2023-02-19T05:58:27.298Z,2.00
2023-02-19T06:00:28.856Z,1.98
2023-02-19T06:02:30.335Z,2.50
2023-02-19T06:04:31.790Z,1.88
2023-02-19T06:06:33.291Z,3.08
2023-02-19T06:08:34.733Z,1.73
2023-02-19T06:10:37.192Z,1.80
2023-02-19T06:12:39.491Z,2.20
2023-02-19T06:14:40.928Z,1.52
2023-02-19T06:16:42.469Z,1.80
2023-02-19T06:18:44.906Z,2.10
2023-02-19T06:20:46.390Z,1.67
2023-02-19T06:22:50.672Z,1.70
2023-02-19T06:24:52.139Z,1.70
2023-02-19T06:26:53.618Z,1.55
2023-02-19T06:28:55.075Z,2.08
2023-02-19T06:30:58.533Z,2.25
2023-02-19T06:33:00.044Z,2.45
2023-02-19T06:35:01.559Z,1.92
2023-02-19T06:37:03.150Z,2.17
2023-02-19T06:39:05.647Z,2.50
2023-02-19T06:41:08.943Z,2.30
2023-02-19T06:43:10.515Z,2.35
2023-02-19T06:45:12.013Z,1.83
2023-02-19T06:47:13.500Z,2.85
2023-02-19T06:49:15.420Z,1.83
2023-02-19T06:51:19.420Z,1.92
2023-02-19T06:53:21.086Z,1.70
2023-02-19T06:55:22.618Z,2.00
2023-02-19T06:57:24.095Z,2.30
2023-02-19T06:59:25.933Z,1.70
2023-02-19T07:01:28.988Z,2.67
2023-02-19T07:03:30.500Z,2.40
2023-02-19T07:05:31.945Z,1.92
2023-02-19T07:07:33.465Z,1.80
2023-02-19T07:09:34.907Z,2.50
2023-02-19T07:11:39.053Z,2.10
2023-02-19T07:13:40.606Z,1.90
2023-02-19T07:15:42.084Z,1.90
2023-02-19T07:17:43.554Z,1.90
2023-02-19T07:19:45.002Z,2.45
2023-02-19T07:21:46.508Z,2.30
2023-02-19T07:23:47.993Z,2.20
2023-02-19T07:25:49.452Z,2.33
2023-02-19T07:27:50.893Z,1.98
2023-02-19T07:29:52.389Z,2.15
2023-02-19T07:31:54.067Z,2.17
2023-02-19T07:33:56.087Z,2.35
2023-02-19T07:35:57.572Z,1.95
2023-02-19T07:37:59.016Z,2.10
2023-02-19T07:40:00.555Z,2.05
2023-02-19T07:42:01.991Z,2.05
2023-02-19T07:44:03.619Z,2.70
2023-02-19T07:46:07.007Z,2.40
2023-02-19T07:48:08.493Z,2.55
2023-02-19T07:50:10.682Z,3.08
2023-02-19T07:52:13.330Z,3.03
2023-02-19T07:54:15.067Z,2.70
2023-02-19T07:56:17.228Z,2.63
2023-02-19T07:58:18.729Z,2.70
2023-02-19T08:00:20.329Z,2.63
2023-02-19T08:02:40.387Z,2.95
2023-02-19T08:04:41.906Z,2.50
2023-02-19T08:06:43.500Z,2.90
2023-02-19T08:08:44.983Z,3.20
2023-02-19T08:11:05.068Z,3.95
2023-02-19T08:13:25.317Z,3.30
2023-02-19T08:15:26.986Z,3.15
2023-02-19T08:17:30.205Z,3.83
2023-02-19T08:19:31.722Z,4.40
2023-02-19T08:21:34.418Z,4.07
2023-02-19T08:23:36.518Z,4.63
2023-02-19T08:25:38.817Z,5.03
2023-02-19T08:27:40.286Z,5.22
2023-02-19T08:29:41.804Z,4.72
2023-02-19T08:31:43.409Z,5.10
2023-02-19T08:33:44.918Z,5.10
2023-02-19T08:35:47.189Z,5.30
2023-02-19T08:37:48.673Z,5.50
2023-02-19T08:39:50.172Z,5.28
2023-02-19T08:41:51.622Z,4.80
2023-02-19T08:43:53.081Z,4.88
2023-02-19T08:45:55.459Z,5.13
2023-02-19T08:47:57.023Z,4.95
2023-02-19T08:49:58.519Z,4.50
2023-02-19T08:52:00.004Z,4.70
2023-02-19T08:54:03.197Z,4.47
2023-02-19T08:56:07.222Z,4.25
2023-02-19T08:58:10.440Z,4.53
2023-02-19T09:00:12.909Z,3.88
2023-02-19T09:02:14.365Z,4.20
2023-02-19T09:04:15.906Z,4.63
2023-02-19T09:06:20.133Z,3.83
2023-02-19T09:08:21.651Z,3.45
2023-02-19T09:10:23.170Z,3.30
2023-02-19T09:12:25.436Z,3.55
2023-02-19T09:14:26.948Z,3.13
2023-02-19T09:16:28.399Z,3.22
2023-02-19T09:18:29.904Z,2.65
2023-02-19T09:20:31.423Z,2.53
2023-02-19T09:22:33.095Z,2.65
2023-02-19T09:24:34.631Z,2.40
2023-02-19T09:26:38.374Z,2.30
2023-02-19T09:28:41.869Z,2.20
2023-02-19T09:30:43.617Z,2.30
2023-02-19T09:32:45.061Z,2.22
2023-02-19T09:34:46.690Z,2.25
2023-02-19T09:36:51.855Z,2.47
2023-02-19T09:38:53.556Z,1.70
2023-02-19T09:40:57.270Z,1.58
2023-02-19T09:43:00.922Z,2.20
2023-02-19T09:45:04.933Z,2.08
2023-02-19T09:47:15.766Z,2.25
2023-02-19T09:49:21.245Z,2.80
2023-02-19T09:51:25.268Z,1.90
2023-02-19T09:53:33.815Z,1.70
2023-02-19T09:55:38.966Z,1.70
2023-02-19T09:57:40.978Z,2.55
2023-02-19T09:59:47.877Z,1.50
2023-02-19T10:01:57.487Z,1.70
2023-02-19T10:03:58.927Z,1.50
2023-02-19T10:06:11.826Z,1.75
2023-02-19T10:08:18.823Z,1.77
2023-02-19T10:10:31.349Z,1.55
2023-02-19T10:12:34.649Z,1.42
2023-02-19T10:14:41.744Z,1.63
2023-02-19T10:16:46.435Z,1.50
2023-02-19T10:18:48.287Z,1.48
2023-02-19T10:20:52.106Z,1.90
2023-02-19T10:23:03.832Z,2.15
2023-02-19T10:25:05.609Z,1.55
2023-02-19T10:27:13.781Z,1.40
2023-02-19T10:29:15.244Z,1.20
2023-02-19T10:31:23.179Z,1.05
2023-02-19T10:33:26.089Z,0.60
2023-02-19T10:35:28.318Z,1.10
2023-02-19T10:37:29.915Z,1.67
2023-02-19T10:39:50.738Z,1.13
2023-02-19T10:41:56.392Z,3.08
2023-02-19T10:44:21.649Z,1.15
2023-02-19T10:46:29.742Z,0.73
2023-02-19T10:48:36.512Z,0.93
2023-02-19T10:50:39.295Z,1.23
2023-02-19T10:52:42.396Z,1.02
2023-02-19T10:54:45.487Z,0.90
2023-02-19T10:56:47.526Z,1.08
2023-02-19T10:58:49.088Z,0.90
2023-02-19T11:01:16.494Z,1.10
2023-02-19T11:03:22.439Z,0.80
2023-02-19T11:05:24.356Z,0.85
2023-02-19T11:07:25.898Z,0.80
2023-02-19T11:09:34.677Z,0.93
2023-02-19T11:13:42.435Z,0.50
2023-02-19T11:15:44.295Z,0.70
2023-02-19T11:17:54.011Z,0.90
2023-02-19T11:19:58.368Z,1.23
2023-02-19T11:22:01.119Z,0.95
2023-02-19T11:24:06.063Z,1.85
2023-02-19T11:26:18.322Z,1.20
2023-02-19T11:28:26.744Z,1.20
2023-02-19T11:30:35.587Z,1.02
2023-02-19T11:32:37.656Z,0.95
2023-02-19T11:34:39.203Z,1.05
2023-02-19T11:36:42.074Z,0.75
2023-02-19T11:38:44.049Z,1.13
2023-02-19T11:40:59.361Z,0.90
2023-02-19T11:43:12.824Z,1.17
2023-02-19T11:45:14.251Z,0.70
2023-02-19T11:47:27.806Z,0.60
2023-02-19T11:49:45.893Z,0.82
2023-02-19T11:51:56.396Z,0.68
2023-02-19T11:54:09.781Z,0.90
2023-02-19T11:56:33.672Z,1.00
2023-02-19T11:59:00.392Z,0.68
2023-02-19T12:01:30.644Z,1.10
2023-02-19T12:03:48.021Z,0.63
2023-02-19T12:06:31.464Z,0.90
2023-02-19T12:08:50.657Z,0.98
2023-02-19T12:11:08.732Z,1.00
2023-02-19T12:13:41.561Z,1.10
2023-02-19T12:16:01.415Z,0.63
2023-02-19T12:18:34.848Z,0.50
2023-02-19T12:20:39.403Z,0.50
2023-02-19T12:23:02.796Z,0.47
2023-02-19T12:25:23.908Z,1.13
2023-02-19T12:27:34.078Z,0.70
2023-02-19T12:30:13.374Z,1.35
2023-02-19T12:32:56.649Z,0.73
2023-02-19T12:35:22.707Z,0.75
2023-02-19T12:37:52.401Z,0.63
2023-02-19T12:40:30.136Z,0.60
2023-02-19T12:43:09.534Z,0.40
2023-02-19T12:45:38.880Z,0.80
2023-02-19T12:47:43.348Z,0.60
2023-02-19T12:49:52.001Z,0.95
2023-02-19T12:52:03.644Z,0.73
2023-02-19T12:54:12.849Z,0.85
2023-02-19T12:56:40.599Z,0.82
2023-02-19T12:58:55.900Z,0.68
2023-02-19T13:00:59.804Z,0.70
2023-02-19T13:03:21.086Z,0.70
2023-02-19T13:05:41.550Z,0.93
2023-02-19T13:07:59.338Z,0.60
2023-02-19T13:10:25.030Z,0.60
2023-02-19T13:12:31.052Z,0.77
2023-02-19T13:14:40.457Z,0.50
2023-02-19T13:16:48.085Z,0.55
2023-02-19T13:18:57.579Z,0.60
2023-02-19T13:21:00.101Z,0.38
2023-02-19T13:23:30.395Z,0.50
2023-02-19T13:25:56.764Z,0.90
2023-02-19T13:28:13.062Z,1.15
2023-02-19T13:30:38.135Z,0.63
2023-02-19T13:32:39.577Z,0.77
2023-02-19T13:35:05.661Z,0.50
2023-02-19T13:37:08.383Z,0.85
2023-02-19T13:41:20.154Z,0.65
2023-02-19T13:43:34.865Z,0.73
2023-02-19T13:45:44.458Z,0.93
2023-02-19T13:48:09.141Z,0.82
2023-02-19T13:50:20.074Z,0.68
2023-02-19T13:52:30.441Z,0.60
2023-02-19T13:54:36.028Z,0.77
2023-02-19T13:56:38.740Z,0.52
2023-02-19T13:58:53.843Z,0.93
2023-02-19T14:00:55.380Z,0.75
2023-02-19T14:03:28.524Z,0.60
2023-02-19T14:05:57.431Z,0.73
2023-02-19T14:07:58.913Z,0.65
2023-02-19T14:10:01.842Z,0.38
2023-02-19T14:12:15.018Z,0.50
2023-02-19T14:14:22.877Z,0.80
2023-02-19T14:16:38.069Z,0.80
2023-02-19T14:18:44.803Z,0.75
2023-02-19T14:20:46.358Z,1.00
2023-02-19T14:22:48.852Z,0.73
2023-02-19T14:24:53.565Z,0.65
2023-02-19T14:26:57.479Z,0.70
2023-02-19T14:29:00.714Z,0.68
2023-02-19T14:31:27.024Z,0.93
2023-02-19T14:33:32.635Z,0.47
2023-02-19T14:35:39.105Z,0.82
2023-02-19T14:37:40.966Z,0.50
2023-02-19T14:39:44.541Z,0.70
2023-02-19T14:41:49.691Z,0.80
2023-02-19T14:43:53.872Z,0.70
2023-02-19T14:46:04.374Z,0.63
2023-02-19T14:48:06.890Z,0.60
2023-02-19T14:50:15.044Z,0.70
2023-02-19T14:52:30.419Z,0.90
2023-02-19T14:55:04.025Z,1.00
2023-02-19T14:57:15.390Z,0.95
2023-02-19T14:59:19.471Z,0.50
2023-02-19T15:01:28.377Z,0.50
2023-02-19T15:03:36.600Z,0.60
2023-02-19T15:05:38.188Z,0.80
2023-02-19T15:07:41.935Z,0.60
2023-02-19T15:09:49.261Z,0.60
2023-02-19T15:11:51.161Z,0.70
2023-02-19T15:13:57.560Z,0.63
2023-02-19T15:15:59.654Z,0.85
2023-02-19T15:18:03.179Z,0.82
2023-02-19T15:20:11.179Z,0.57
2023-02-19T15:22:19.790Z,0.50
2023-02-19T15:24:21.865Z,0.70
2023-02-19T15:26:46.899Z,0.70
2023-02-19T15:28:58.484Z,0.93
2023-02-19T15:30:59.976Z,0.75
2023-02-19T15:33:01.508Z,0.55
2023-02-19T15:35:04.668Z,1.00
2023-02-19T15:37:09.600Z,0.73
2023-02-19T15:39:21.563Z,0.80
2023-02-19T15:41:25.923Z,0.65
2023-02-19T15:43:33.303Z,0.57
2023-02-19T15:45:42.178Z,0.70
2023-02-19T15:50:23.818Z,0.85
2023-02-19T15:52:49.014Z,0.70
2023-02-19T15:55:18.527Z,0.90
2023-02-19T15:57:25.975Z,0.70
2023-02-19T15:59:30.381Z,1.48
2023-02-19T16:01:41.215Z,0.80
2023-02-19T16:03:43.070Z,0.70
2023-02-19T16:05:45.328Z,0.70
2023-02-19T16:07:46.893Z,0.88
2023-02-19T16:09:48.384Z,0.55
2023-02-19T16:11:53.502Z,0.45
2023-02-19T16:14:16.684Z,0.98
2023-02-19T16:16:35.284Z,0.73
2023-02-19T16:18:37.253Z,0.57
2023-02-19T16:20:38.820Z,1.00
2023-02-19T16:22:42.326Z,0.80
2023-02-19T16:24:50.236Z,0.63
2023-02-19T16:26:51.742Z,0.90
2023-02-19T16:28:54.118Z,1.00
2023-02-19T16:31:00.959Z,0.85
2023-02-19T16:33:22.030Z,1.08
2023-02-19T16:35:44.957Z,1.15
2023-02-19T16:37:58.288Z,0.70
2023-02-19T16:40:08.546Z,1.42
2023-02-19T16:42:14.446Z,1.00
2023-02-19T16:44:25.147Z,1.13
2023-02-19T16:46:26.726Z,0.85
2023-02-19T16:48:28.433Z,0.90
2023-02-19T16:50:29.917Z,1.20
2023-02-19T16:52:31.577Z,0.90
2023-02-19T16:54:33.029Z,0.75
2023-02-19T16:56:34.482Z,1.00
2023-02-19T16:58:37.175Z,0.90
2023-02-19T17:00:40.357Z,0.82
2023-02-19T17:02:41.877Z,0.95
2023-02-19T17:04:43.719Z,0.90
2023-02-19T17:06:46.631Z,0.85
2023-02-19T17:08:48.143Z,1.10
2023-02-19T17:10:49.617Z,0.85
2023-02-19T17:12:52.682Z,1.10
2023-02-19T17:14:54.252Z,1.35
2023-02-19T17:16:55.705Z,1.58
2023-02-19T17:18:58.776Z,1.33
2023-02-19T17:21:09.491Z,1.38
2023-02-19T17:23:11.405Z,1.10
2023-02-19T17:25:12.886Z,1.33
2023-02-19T17:27:14.392Z,1.65
2023-02-19T17:29:18.269Z,2.08
2023-02-19T17:31:19.846Z,1.35
2023-02-19T17:33:21.377Z,1.30
2023-02-19T17:35:23.224Z,1.50
2023-02-19T17:37:24.669Z,1.40
2023-02-19T17:39:27.767Z,1.20
2023-02-19T17:41:29.407Z,2.05
2023-02-19T17:43:30.898Z,2.33
2023-02-19T17:45:33.453Z,1.90
2023-02-19T17:47:34.933Z,1.67
2023-02-19T17:49:36.476Z,1.60
2023-02-19T17:51:37.948Z,2.30
2023-02-19T17:53:39.487Z,1.75
2023-02-19T17:55:40.930Z,1.75
2023-02-19T17:57:42.384Z,1.52
2023-02-19T17:59:43.843Z,1.50
2023-02-19T18:01:46.202Z,1.50
2023-02-19T18:03:47.734Z,1.30
2023-02-19T18:05:49.224Z,1.50
2023-02-19T18:07:51.076Z,2.00
2023-02-19T18:09:52.590Z,1.60
2023-02-19T18:11:54.226Z,2.10
2023-02-19T18:13:56.212Z,2.22
2023-02-19T18:15:58.187Z,1.27
2023-02-19T18:17:59.628Z,1.85
2023-02-19T18:20:01.603Z,1.80
2023-02-19T18:22:04.657Z,1.65
2023-02-19T18:24:07.601Z,1.30
2023-02-19T18:26:11.119Z,1.80
2023-02-19T18:28:12.668Z,1.60
2023-02-19T18:30:18.852Z,1.88
2023-02-19T18:32:24.844Z,1.80
2023-02-19T18:34:26.303Z,1.80
2023-02-19T18:36:27.758Z,2.10
2023-02-19T18:38:29.261Z,2.50
2023-02-19T18:40:30.701Z,1.90
2023-02-19T18:42:32.231Z,2.40
2023-02-19T18:44:33.783Z,1.67
2023-02-19T18:46:35.303Z,1.83
2023-02-19T18:48:37.335Z,1.90
2023-02-19T18:50:38.779Z,2.28
2023-02-19T18:52:40.293Z,2.08
2023-02-19T18:54:43.232Z,2.47
2023-02-19T18:56:46.245Z,2.30
2023-02-19T18:58:50.239Z,2.00
2023-02-19T19:00:52.029Z,2.00
2023-02-19T19:02:59.456Z,2.15
2023-02-19T19:05:01.059Z,2.03
2023-02-19T19:07:03.501Z,1.75
2023-02-19T19:09:05.422Z,2.13
2023-02-19T19:11:06.860Z,2.00
2023-02-19T19:13:08.317Z,2.00
2023-02-19T19:15:09.884Z,2.67
2023-02-19T19:17:11.509Z,2.13
2023-02-19T19:19:13.962Z,2.10
2023-02-19T19:21:15.916Z,2.45
2023-02-19T19:23:17.415Z,1.95
2023-02-19T19:25:20.275Z,1.98
2023-02-19T19:27:21.752Z,2.58
2023-02-19T19:29:23.590Z,2.30
2023-02-19T19:31:25.446Z,1.50
2023-02-19T19:33:28.020Z,2.00
2023-02-19T19:35:29.795Z,1.98
2023-02-19T19:37:31.328Z,2.17
2023-02-19T19:39:32.762Z,2.05
2023-02-19T19:41:34.188Z,2.00
2023-02-19T19:43:35.731Z,1.98
2023-02-19T19:45:37.280Z,2.95
2023-02-19T19:47:38.802Z,1.80
2023-02-19T19:49:41.119Z,2.05
2023-02-19T19:51:42.594Z,1.60
2023-02-19T19:53:47.343Z,2.20
2023-02-19T19:55:48.937Z,2.53
2023-02-19T19:57:50.449Z,1.98
2023-02-19T19:59:52.105Z,1.83
2023-02-19T20:02:01.736Z,2.00
2023-02-19T20:04:03.557Z,1.75
2023-02-19T20:06:05.340Z,2.83
2023-02-19T20:08:06.828Z,1.77
2023-02-19T20:10:11.376Z,1.60
2023-02-19T20:12:12.942Z,1.90
2023-02-19T20:14:15.948Z,1.77
2023-02-19T20:16:23.962Z,1.90
2023-02-19T20:18:26.596Z,1.75
2023-02-19T20:20:28.501Z,1.30
2023-02-19T20:22:29.996Z,1.58
2023-02-19T20:24:31.707Z,2.17
2023-02-19T20:26:33.217Z,2.20
2023-02-19T20:28:34.724Z,2.42
2023-02-19T20:30:37.184Z,2.40
2023-02-19T20:32:38.688Z,2.00
2023-02-19T20:34:40.905Z,1.80
2023-02-19T20:36:43.640Z,1.80
2023-02-19T20:38:45.088Z,2.10
2023-02-19T20:40:46.657Z,2.15
2023-02-19T20:42:48.100Z,2.00
2023-02-19T20:44:49.645Z,1.92
2023-02-19T20:46:52.683Z,2.28
2023-02-19T20:48:54.184Z,2.38
2023-02-19T20:51:00.041Z,2.10
2023-02-19T20:53:01.488Z,1.80
2023-02-19T20:55:03.361Z,2.40
2023-02-19T20:57:05.854Z,2.17
2023-02-19T20:59:07.337Z,2.00
2023-02-19T21:01:09.218Z,2.30
2023-02-19T21:03:11.620Z,2.00
2023-02-19T21:05:13.540Z,2.10
2023-02-19T21:07:15.094Z,2.35
2023-02-19T21:09:16.552Z,2.42
2023-02-19T21:11:18.044Z,2.00
2023-02-19T21:13:19.574Z,2.47
2023-02-19T21:15:21.103Z,2.67
2023-02-19T21:17:22.551Z,2.10
2023-02-19T21:19:24.071Z,2.22
2023-02-19T21:21:26.505Z,1.85
2023-02-19T21:23:27.937Z,1.98
2023-02-19T21:25:31.425Z,2.33
2023-02-19T21:27:32.861Z,2.10
2023-02-19T21:29:34.343Z,1.98
2023-02-19T21:31:44.231Z,1.98
2023-02-19T21:33:45.774Z,2.15
2023-02-19T21:35:47.210Z,2.28
2023-02-19T21:37:48.692Z,2.05
2023-02-19T21:39:50.252Z,1.90
2023-02-19T21:41:51.723Z,2.00
2023-02-19T21:43:56.812Z,2.03
2023-02-19T21:45:58.300Z,2.00
2023-02-19T21:47:59.813Z,2.15
2023-02-19T21:50:01.267Z,2.20
2023-02-19T21:52:02.715Z,1.90
2023-02-19T21:54:06.031Z,2.60
2023-02-19T21:56:07.691Z,1.50
2023-02-19T21:58:10.035Z,2.28
2023-02-19T22:00:12.136Z,1.55
2023-02-19T22:02:13.646Z,1.70
2023-02-19T22:04:17.743Z,2.03
2023-02-19T22:06:22.730Z,2.08
2023-02-19T22:08:24.198Z,1.60
2023-02-19T22:10:25.677Z,1.80
2023-02-19T22:12:27.130Z,1.85
2023-02-19T22:14:28.567Z,2.00
2023-02-19T22:16:30.072Z,1.52
2023-02-19T22:18:31.545Z,2.00
2023-02-19T22:20:34.632Z,1.77
2023-02-19T22:22:36.093Z,1.98
2023-02-19T22:24:37.660Z,1.90
2023-02-19T22:26:39.147Z,2.17
2023-02-19T22:28:40.630Z,1.55
2023-02-19T22:30:42.926Z,1.70
2023-02-19T22:32:44.435Z,1.60
2023-02-19T22:34:45.938Z,1.73
2023-02-19T22:36:47.471Z,1.65
2023-02-19T22:38:49.676Z,1.60
2023-02-19T22:40:51.118Z,1.45
2023-02-19T22:42:52.852Z,1.40
2023-02-19T22:44:54.341Z,1.80
2023-02-19T22:46:56.841Z,2.45
2023-02-19T22:48:58.845Z,1.77
2023-02-19T22:51:02.333Z,1.40
2023-02-19T22:53:03.768Z,1.60
2023-02-19T22:55:05.477Z,1.50
2023-02-19T22:57:07.026Z,1.90
2023-02-19T22:59:08.500Z,1.77
2023-02-19T23:01:11.939Z,1.77
2023-02-19T23:03:14.391Z,1.55
2023-02-19T23:05:16.579Z,1.70
2023-02-19T23:07:18.027Z,1.95
2023-02-19T23:09:26.694Z,1.80
2023-02-19T23:11:31.531Z,2.15
2023-02-19T23:13:32.965Z,1.95
2023-02-19T23:15:34.491Z,1.83
2023-02-19T23:17:36.071Z,1.90
2023-02-19T23:19:37.972Z,1.80
2023-02-19T23:21:41.453Z,2.40
2023-02-19T23:23:44.114Z,1.80
2023-02-19T23:25:45.577Z,2.03
2023-02-19T23:27:47.004Z,1.92
2023-02-19T23:29:48.442Z,1.55
2023-02-19T23:31:50.101Z,1.73
2023-02-19T23:33:51.622Z,2.25
2023-02-19T23:35:53.160Z,1.77
2023-02-19T23:37:55.798Z,1.67
2023-02-19T23:39:57.262Z,1.77
2023-02-19T23:41:58.741Z,1.90
2023-02-19T23:44:00.186Z,1.70
2023-02-19T23:46:01.857Z,1.88
2023-02-19T23:48:03.609Z,1.35
2023-02-19T23:50:05.525Z,1.75
2023-02-19T23:52:07.446Z,1.50
2023-02-19T23:54:09.712Z,1.65
2023-02-19T23:56:11.611Z,1.48
2023-02-19T23:58:13.659Z,2.10
